createdAt,value
2018-03-19T00:00:42.959Z,98830.02
2018-03-19T00:03:11.418Z,98832.73
2018-03-19T00:05:39.866Z,98838.34
2018-03-19T00:08:08.374Z,98842.06
2018-03-19T00:10:36.818Z,98849.07
2018-03-19T00:13:05.269Z,98849.19
2018-03-19T00:15:33.754Z,98853.69
2018-03-19T00:18:02.269Z,98851.19
2018-03-19T00:20:30.758Z,98856.77
2018-03-19T00:22:59.202Z,98845.95
2018-03-19T00:25:27.690Z,98850.52
2018-03-19T00:27:56.134Z,98851.29
2018-03-19T00:30:24.640Z,98859.80
2018-03-19T00:32:53.093Z,98855.06
2018-03-19T00:35:21.534Z,98853.31
2018-03-19T00:37:50.009Z,98848.45
2018-03-19T00:40:18.489Z,98834.02
2018-03-19T00:42:46.974Z,98849.48
2018-03-19T00:45:15.417Z,98840.52
2018-03-19T00:47:43.916Z,98845.06
2018-03-19T00:50:12.397Z,98844.73
2018-03-19T00:52:40.861Z,98847.83
2018-03-19T00:55:09.313Z,98837.86
2018-03-19T00:57:37.754Z,98839.98
2018-03-19T01:00:06.291Z,98841.53
2018-03-19T01:02:34.826Z,98836.03
2018-03-19T01:05:03.309Z,98845.81
2018-03-19T01:07:31.770Z,98855.94
2018-03-19T01:10:00.269Z,98862.51
2018-03-19T01:12:28.717Z,98860.92
2018-03-19T01:14:57.215Z,98858.83
2018-03-19T01:17:25.662Z,98854.80
2018-03-19T01:19:54.144Z,98850.16
2018-03-19T01:22:22.630Z,98854.20
2018-03-19T01:24:51.106Z,98860.43
2018-03-19T01:27:19.590Z,98853.73
2018-03-19T01:29:48.046Z,98842.05
2018-03-19T01:32:16.542Z,98840.09
2018-03-19T01:34:44.997Z,98828.54
2018-03-19T01:37:13.482Z,98824.51
2018-03-19T01:39:41.933Z,98817.45
2018-03-19T01:42:10.423Z,98823.70
2018-03-19T01:44:38.867Z,98821.27
2018-03-19T01:47:07.356Z,98812.67
2018-03-19T01:49:35.843Z,98811.13
2018-03-19T01:52:04.322Z,98815.75
2018-03-19T01:54:32.781Z,98815.53
2018-03-19T01:57:01.311Z,98818.39
2018-03-19T01:59:29.757Z,98819.37
2018-03-19T02:01:58.216Z,98831.94
2018-03-19T02:04:26.705Z,98810.78
2018-03-19T02:06:55.150Z,98833.26
2018-03-19T02:09:23.630Z,98831.81
2018-03-19T02:11:52.147Z,98836.32
2018-03-19T02:14:20.670Z,98837.74
2018-03-19T02:16:49.109Z,98838.92
2018-03-19T02:19:17.607Z,98833.58
2018-03-19T02:21:46.082Z,98821.98
2018-03-19T02:24:14.554Z,98791.94
2018-03-19T02:26:42.998Z,98800.73
2018-03-19T02:29:11.458Z,98803.02
2018-03-19T02:31:39.942Z,98793.69
2018-03-19T02:34:08.426Z,98815.11
2018-03-19T02:36:36.909Z,98828.77
2018-03-19T02:39:05.416Z,98833.52
2018-03-19T02:41:33.887Z,98841.48
2018-03-19T02:44:02.374Z,98846.73
2018-03-19T02:46:30.850Z,98847.75
2018-03-19T02:48:59.302Z,98858.94
2018-03-19T02:51:27.794Z,98870.94
2018-03-19T02:53:56.238Z,98886.46
2018-03-19T02:56:24.718Z,98887.21
2018-03-19T02:58:53.201Z,98883.58
2018-03-19T03:01:21.696Z,98879.97
2018-03-19T03:03:50.147Z,98878.61
2018-03-19T03:06:18.617Z,98876.54
2018-03-19T03:08:47.104Z,98882.74
2018-03-19T03:11:15.554Z,98877.64
2018-03-19T03:13:44.074Z,98872.23
2018-03-19T03:16:12.530Z,98876.30
2018-03-19T03:18:41.002Z,98884.48
2018-03-19T03:21:09.450Z,98897.27
2018-03-19T03:23:37.933Z,98896.34
2018-03-19T03:26:06.371Z,98902.13
2018-03-19T03:28:34.858Z,98898.59
2018-03-19T03:31:03.335Z,98894.64
2018-03-19T03:33:31.789Z,98893.90
2018-03-19T03:36:00.273Z,98895.45
2018-03-19T03:38:28.729Z,98902.78
2018-03-19T03:40:57.206Z,98900.59
2018-03-19T03:43:25.655Z,98897.22
2018-03-19T03:45:54.160Z,98903.37
2018-03-19T03:48:22.621Z,98905.07
2018-03-19T03:50:51.110Z,98907.33
2018-03-19T03:53:19.612Z,98910.42
2018-03-19T03:55:48.072Z,98914.89
2018-03-19T03:58:16.562Z,98895.81
2018-03-19T04:00:45.024Z,98913.73
2018-03-19T04:03:13.470Z,98923.88
2018-03-19T04:05:41.954Z,98931.78
2018-03-19T04:08:10.433Z,98932.28
2018-03-19T04:10:38.914Z,98923.67
2018-03-19T04:13:07.929Z,98940.97
2018-03-19T04:15:36.369Z,98945.42
2018-03-19T04:18:04.846Z,98946.77
2018-03-19T04:20:33.367Z,98961.09
2018-03-19T04:23:01.822Z,98961.70
2018-03-19T04:25:30.312Z,98960.62
2018-03-19T04:27:58.769Z,98953.16
2018-03-19T04:30:27.285Z,98956.78
2018-03-19T04:32:55.746Z,98949.61
2018-03-19T04:35:24.225Z,98941.70
2018-03-19T04:37:52.696Z,98952.63
2018-03-19T04:40:21.177Z,98941.72
2018-03-19T04:42:49.662Z,98948.44
2018-03-19T04:45:18.146Z,98937.12
2018-03-19T04:47:46.630Z,98940.24
2018-03-19T04:50:15.087Z,98939.99
2018-03-19T04:52:43.582Z,98968.21
2018-03-19T04:55:12.038Z,98974.77
2018-03-19T04:57:40.531Z,98971.95
2018-03-19T05:00:08.985Z,98982.77
2018-03-19T05:02:37.489Z,98993.73
2018-03-19T05:05:05.950Z,99001.41
2018-03-19T05:07:34.442Z,98993.80
2018-03-19T05:10:02.899Z,98988.91
2018-03-19T05:12:31.382Z,98995.67
2018-03-19T05:14:59.830Z,99008.19
2018-03-19T05:17:28.328Z,98999.54
2018-03-19T05:19:56.812Z,99008.08
2018-03-19T05:22:25.310Z,99018.20
2018-03-19T05:24:53.762Z,99023.31
2018-03-19T05:27:22.246Z,99019.10
2018-03-19T05:29:50.732Z,99021.12
2018-03-19T05:32:19.214Z,99020.92
2018-03-19T05:34:47.674Z,99010.09
2018-03-19T05:37:16.158Z,99016.77
2018-03-19T05:39:44.622Z,99021.11
2018-03-19T05:42:13.126Z,99024.52
2018-03-19T05:44:41.635Z,99013.58
2018-03-19T05:47:10.134Z,99006.66
2018-03-19T05:49:38.590Z,99007.31
2018-03-19T05:52:07.098Z,99011.44
2018-03-19T05:54:35.576Z,98998.81
2018-03-19T05:57:04.106Z,98996.06
2018-03-19T05:59:32.550Z,98991.01
2018-03-19T06:02:01.039Z,99008.56
2018-03-19T06:04:29.546Z,99014.20
2018-03-19T06:06:57.994Z,99018.81
2018-03-19T06:09:26.438Z,98999.91
2018-03-19T06:11:54.921Z,99030.66
2018-03-19T06:14:23.418Z,99029.05
2018-03-19T06:16:51.934Z,99008.80
2018-03-19T06:19:20.394Z,99019.58
2018-03-19T06:21:49.052Z,99014.78
2018-03-19T06:24:17.609Z,99036.68
2018-03-19T06:26:46.075Z,98996.30
2018-03-19T06:29:14.534Z,99026.27
2018-03-19T06:31:43.050Z,99032.55
2018-03-19T06:34:11.533Z,99025.94
2018-03-19T06:36:39.982Z,99053.44
2018-03-19T06:39:08.584Z,99066.59
2018-03-19T06:41:37.069Z,99051.44
2018-03-19T06:44:05.582Z,99080.80
2018-03-19T06:46:34.325Z,99079.16
2018-03-19T06:49:02.908Z,99079.77
2018-03-19T06:51:31.398Z,99086.17
2018-03-19T06:53:59.980Z,99052.48
2018-03-19T06:56:29.169Z,99078.11
2018-03-19T06:58:57.617Z,99091.00
2018-03-19T07:01:26.121Z,99099.48
2018-03-19T07:03:54.580Z,99097.59
2018-03-19T07:06:23.118Z,99089.34
2018-03-19T07:08:51.643Z,99101.67
2018-03-19T07:11:20.106Z,99105.16
2018-03-19T07:13:48.573Z,99118.27
2018-03-19T07:16:17.065Z,99114.32
2018-03-19T07:18:45.550Z,99113.83
2018-03-19T07:21:14.078Z,99097.54
2018-03-19T07:23:42.582Z,99109.06
2018-03-19T07:26:11.081Z,99133.12
2018-03-19T07:28:39.609Z,99120.97
2018-03-19T07:31:08.095Z,99139.11
2018-03-19T07:33:36.547Z,99122.83
2018-03-19T07:36:05.069Z,99133.45
2018-03-19T07:38:34.563Z,99131.86
2018-03-19T07:41:03.097Z,99110.26
2018-03-19T07:43:31.633Z,99120.59
2018-03-19T07:46:00.088Z,99118.86
2018-03-19T07:48:28.592Z,99128.98
2018-03-19T07:50:57.053Z,99120.97
2018-03-19T07:53:25.551Z,99119.50
2018-03-19T07:55:54.006Z,99114.87
2018-03-19T07:58:23.499Z,99122.36
2018-03-19T08:00:51.982Z,99115.76
2018-03-19T08:03:20.437Z,99104.25
2018-03-19T08:05:48.973Z,99112.80
2018-03-19T08:08:17.490Z,99112.47
2018-03-19T08:10:45.934Z,99101.44
2018-03-19T08:13:14.426Z,99114.67
2018-03-19T08:15:42.872Z,99104.60
2018-03-19T08:18:11.381Z,99107.83
2018-03-19T08:20:39.890Z,99087.78
2018-03-19T08:23:08.395Z,99106.03
2018-03-19T08:25:36.980Z,99094.23
2018-03-19T08:28:05.493Z,99106.08
2018-03-19T08:30:34.010Z,99108.84
2018-03-19T08:33:02.471Z,99120.20
2018-03-19T08:35:30.974Z,99128.58
2018-03-19T08:37:59.493Z,99127.00
2018-03-19T08:40:28.613Z,99131.64
2018-03-19T08:42:57.116Z,99125.77
2018-03-19T08:45:25.589Z,99112.30
2018-03-19T08:47:54.093Z,99120.41
2018-03-19T08:50:22.595Z,99126.55
2018-03-19T08:52:51.081Z,99126.45
2018-03-19T08:55:19.542Z,99120.64
2018-03-19T08:57:48.034Z,99113.20
2018-03-19T09:00:16.487Z,99111.77
2018-03-19T09:02:44.935Z,99105.06
2018-03-19T09:05:13.418Z,99101.03
2018-03-19T09:07:41.931Z,99115.08
2018-03-19T09:10:10.398Z,99116.30
2018-03-19T09:12:38.934Z,99112.27
2018-03-19T09:15:07.426Z,99111.66
2018-03-19T09:17:35.932Z,99104.53
2018-03-19T09:20:04.411Z,99116.19
2018-03-19T09:22:32.949Z,99111.72
2018-03-19T09:25:01.430Z,99100.58
2018-03-19T09:27:29.914Z,99106.23
2018-03-19T09:29:58.403Z,99100.16
2018-03-19T09:32:26.912Z,99112.09
2018-03-19T09:34:55.382Z,99102.17
2018-03-19T09:37:23.878Z,99110.75
2018-03-19T09:39:52.330Z,99117.30
2018-03-19T09:42:20.828Z,99104.68
2018-03-19T09:44:49.291Z,99096.42
2018-03-19T09:47:17.770Z,99104.77
2018-03-19T09:49:46.235Z,99117.67
2018-03-19T09:52:14.727Z,99097.09
2018-03-19T09:54:43.233Z,99097.64
2018-03-19T09:57:11.721Z,99087.06
2018-03-19T09:59:40.181Z,99085.97
2018-03-19T10:02:08.707Z,99051.33
2018-03-19T10:04:37.234Z,99079.50
2018-03-19T10:07:05.746Z,99061.97
2018-03-19T10:09:34.316Z,99066.45
2018-03-19T10:12:02.834Z,99076.73
2018-03-19T10:14:31.350Z,99071.41
2018-03-19T10:16:59.866Z,99061.19
2018-03-19T10:19:28.317Z,99059.86
2018-03-19T10:21:56.814Z,99073.88
2018-03-19T10:24:25.330Z,99072.50
2018-03-19T10:26:53.830Z,99028.67
2018-03-19T10:29:22.370Z,99065.74
2018-03-19T10:31:50.886Z,99059.22
2018-03-19T10:34:19.346Z,99070.16
2018-03-19T10:36:47.859Z,99046.84
2018-03-19T10:39:16.398Z,99072.30
2018-03-19T10:41:44.914Z,99067.05
2018-03-19T10:44:13.426Z,99055.43
2018-03-19T10:46:41.958Z,99063.95
2018-03-19T10:49:10.438Z,99051.59
2018-03-19T10:51:38.949Z,99052.70
2018-03-19T10:54:07.444Z,99026.12
2018-03-19T10:56:35.953Z,99059.67
2018-03-19T10:59:04.437Z,99053.72
2018-03-19T11:01:38.543Z,99048.86
2018-03-19T11:04:14.395Z,99041.16
2018-03-19T11:09:48.920Z,99044.92
2018-03-19T11:12:17.602Z,99041.23
2018-03-19T11:14:46.534Z,99061.38
2018-03-19T11:17:15.052Z,99056.17
2018-03-19T11:19:43.502Z,99041.70
2018-03-19T11:22:11.949Z,99043.15
2018-03-19T11:24:40.429Z,99034.41
2018-03-19T11:27:08.926Z,99025.16
2018-03-19T11:29:37.405Z,99022.06
2018-03-19T11:32:05.913Z,99018.93
2018-03-19T11:34:34.442Z,99014.77
2018-03-19T11:37:02.902Z,98980.19
2018-03-19T11:39:31.369Z,99005.94
2018-03-19T11:41:59.829Z,99001.00
2018-03-19T11:44:28.330Z,98995.61
2018-03-19T11:46:56.850Z,98986.63
2018-03-19T11:49:25.335Z,98966.58
2018-03-19T11:51:53.886Z,98984.27
2018-03-19T11:54:22.339Z,98994.31
2018-03-19T11:56:50.794Z,98995.41
2018-03-19T11:59:19.294Z,98985.67
2018-03-19T12:01:47.701Z,98984.88
2018-03-19T12:04:16.169Z,98962.98
2018-03-19T12:06:44.604Z,98993.59
2018-03-19T12:09:12.998Z,98985.75
2018-03-19T12:11:41.425Z,98978.09
2018-03-19T12:14:09.825Z,98975.47
2018-03-19T12:16:38.280Z,98975.95
2018-03-19T12:19:06.726Z,98966.02
2018-03-19T12:21:35.226Z,98956.75
2018-03-19T12:24:03.621Z,98963.79
2018-03-19T12:26:32.049Z,98973.05
2018-03-19T12:29:00.456Z,98978.55
2018-03-19T12:31:30.154Z,98956.34
2018-03-19T12:33:58.585Z,98933.75
2018-03-19T12:36:27.090Z,98968.12
2018-03-19T12:38:55.573Z,98959.27
2018-03-19T12:41:23.965Z,98949.72
2018-03-19T12:43:52.400Z,98955.32
2018-03-19T12:46:20.861Z,98954.86
2018-03-19T12:48:49.259Z,98961.84
2018-03-19T12:51:17.734Z,98968.79
2018-03-19T12:53:46.133Z,98958.01
2018-03-19T12:56:14.645Z,98954.23
2018-03-19T12:58:43.053Z,98954.30
2018-03-19T13:01:11.510Z,98935.30
2018-03-19T13:03:40.074Z,98968.98
2018-03-19T13:06:08.544Z,98958.81
2018-03-19T13:08:37.017Z,98968.23
2018-03-19T13:11:05.484Z,98955.52
2018-03-19T13:13:33.883Z,98962.80
2018-03-19T13:16:02.313Z,98948.04
2018-03-19T13:18:30.758Z,98949.78
2018-03-19T13:20:59.186Z,98952.53
2018-03-19T13:23:27.633Z,98943.38
2018-03-19T13:25:56.069Z,98956.39
2018-03-19T13:28:24.503Z,98950.34
2018-03-19T13:30:52.925Z,98937.05
2018-03-19T13:33:21.365Z,98955.09
2018-03-19T13:35:49.789Z,98947.09
2018-03-19T13:38:19.134Z,98942.28
2018-03-19T13:40:47.546Z,98945.56
2018-03-19T13:43:16.003Z,98929.95
2018-03-19T13:45:44.465Z,98902.70
2018-03-19T13:48:12.874Z,98925.37
2018-03-19T13:50:41.322Z,98901.67
2018-03-19T13:53:09.721Z,98929.55
2018-03-19T13:55:38.183Z,98922.22
2018-03-19T13:58:06.635Z,98923.42
2018-03-19T14:00:35.031Z,98920.22
2018-03-19T14:03:03.546Z,98915.83
2018-03-19T14:05:31.975Z,98914.90
2018-03-19T14:08:00.419Z,98911.28
2018-03-19T14:10:28.874Z,98907.36
2018-03-19T14:12:57.277Z,98902.41
2018-03-19T14:15:25.714Z,98903.55
2018-03-19T14:17:54.178Z,98901.22
2018-03-19T14:20:22.653Z,98892.75
2018-03-19T14:22:51.069Z,98874.44
2018-03-19T14:25:19.614Z,98890.14
2018-03-19T14:27:48.174Z,98890.06
2018-03-19T14:30:16.554Z,98888.05
2018-03-19T14:32:45.070Z,98867.77
2018-03-19T14:35:13.514Z,98872.22
2018-03-19T14:37:41.990Z,98872.97
2018-03-19T14:40:10.425Z,98864.91
2018-03-19T14:42:38.909Z,98868.00
2018-03-19T14:45:07.432Z,98850.73
2018-03-19T14:47:35.862Z,98866.17
2018-03-19T14:50:04.368Z,98871.25
2018-03-19T14:52:32.781Z,98792.94
2018-03-19T14:55:01.235Z,98863.73
2018-03-19T14:57:29.673Z,98857.12
2018-03-19T14:59:58.091Z,98861.45
2018-03-19T15:02:26.584Z,98866.70
2018-03-19T15:04:54.978Z,98837.33
2018-03-19T15:07:23.426Z,98865.50
2018-03-19T15:09:51.869Z,98869.73
2018-03-19T15:12:20.317Z,98864.10
2018-03-19T15:14:48.721Z,98844.70
2018-03-19T15:17:17.173Z,98817.80
2018-03-19T15:19:45.569Z,98799.63
2018-03-19T15:22:14.025Z,98816.93
2018-03-19T15:24:42.497Z,98813.72
2018-03-19T15:27:10.900Z,98811.33
2018-03-19T15:29:39.429Z,98816.44
2018-03-19T15:32:07.862Z,98812.95
2018-03-19T15:34:36.302Z,98839.67
2018-03-19T15:37:04.753Z,98844.05
2018-03-19T15:39:33.166Z,98836.26
2018-03-19T15:42:01.621Z,98828.12
2018-03-19T15:44:30.034Z,98827.11
2018-03-19T15:46:58.445Z,98827.06
2018-03-19T15:49:26.890Z,98865.25
2018-03-19T15:51:55.345Z,98868.20
2018-03-19T15:54:23.769Z,98864.45
2018-03-19T15:56:52.194Z,98843.42
2018-03-19T15:59:20.598Z,98853.83
2018-03-19T16:01:49.029Z,98840.69
2018-03-19T16:04:17.495Z,98874.72
2018-03-19T16:06:45.921Z,98870.54
2018-03-19T16:09:14.313Z,98875.91
2018-03-19T16:11:42.697Z,98873.03
2018-03-19T16:14:11.118Z,98849.69
2018-03-19T16:16:39.501Z,98870.87
2018-03-19T16:19:07.932Z,98869.30
2018-03-19T16:21:36.369Z,98854.23
2018-03-19T16:24:04.809Z,98838.39
2018-03-19T16:26:33.204Z,98829.69
2018-03-19T16:29:01.594Z,98804.77
2018-03-19T16:31:30.025Z,98824.16
2018-03-19T16:33:58.434Z,98828.55
2018-03-19T16:36:26.885Z,98828.41
2018-03-19T16:38:55.277Z,98818.19
2018-03-19T16:41:23.733Z,98796.39
2018-03-19T16:43:52.142Z,98808.89
2018-03-19T16:46:20.565Z,98808.80
2018-03-19T16:48:49.010Z,98810.91
2018-03-19T16:51:17.441Z,98814.84
2018-03-19T16:53:45.838Z,98799.95
2018-03-19T16:56:14.293Z,98811.50
2018-03-19T16:58:42.728Z,98813.83
2018-03-19T17:01:11.121Z,98805.92
2018-03-19T17:03:39.553Z,98803.91
2018-03-19T17:06:08.025Z,98812.34
2018-03-19T17:08:36.417Z,98816.97
2018-03-19T17:11:04.881Z,98823.30
2018-03-19T17:13:33.273Z,98821.00
2018-03-19T17:16:01.705Z,98827.70
2018-03-19T17:18:30.149Z,98835.38
2018-03-19T17:20:58.572Z,98821.09
2018-03-19T17:23:26.989Z,98823.69
2018-03-19T17:25:55.425Z,98836.75
2018-03-19T17:28:23.861Z,98826.09
2018-03-19T17:30:52.253Z,98831.47
2018-03-19T17:35:55.305Z,98812.15
2018-03-19T17:38:23.694Z,98818.86
2018-03-19T17:40:52.124Z,98816.55
2018-03-19T17:43:20.517Z,98828.66
2018-03-19T17:45:48.953Z,98841.45
2018-03-19T17:48:17.362Z,98833.89
2018-03-19T17:50:45.889Z,98843.13
2018-03-19T17:53:14.358Z,98847.63
2018-03-19T17:55:42.862Z,98849.47
2018-03-19T17:58:11.321Z,98864.64
2018-03-19T18:00:39.822Z,98865.88
2018-03-19T18:03:08.334Z,98857.70
2018-03-19T18:05:36.826Z,98852.39
2018-03-19T18:08:05.328Z,98837.57
2018-03-19T18:10:33.833Z,98851.00
2018-03-19T18:13:02.302Z,98853.45
2018-03-19T18:15:30.784Z,98869.41
2018-03-19T18:17:59.269Z,98867.14
2018-03-19T18:20:27.718Z,98866.93
2018-03-19T18:22:56.225Z,98866.00
2018-03-19T18:25:24.680Z,98860.77
2018-03-19T18:27:53.141Z,98869.42
2018-03-19T18:30:21.641Z,98865.66
2018-03-19T18:32:50.094Z,98846.55
2018-03-19T18:35:18.590Z,98851.13
2018-03-19T18:37:47.066Z,98854.14
2018-03-19T18:40:15.572Z,98848.84
2018-03-19T18:42:44.022Z,98861.78
2018-03-19T18:45:12.482Z,98852.11
2018-03-19T18:47:40.999Z,98858.28
2018-03-19T18:50:09.527Z,98867.52
2018-03-19T18:52:38.049Z,98871.38
2018-03-19T18:55:06.538Z,98866.06
2018-03-19T18:57:35.043Z,98854.00
2018-03-19T19:00:03.542Z,98869.09
2018-03-19T19:02:32.074Z,98874.33
2018-03-19T19:05:00.588Z,98885.80
2018-03-19T19:07:29.074Z,98884.52
2018-03-19T19:09:57.574Z,98885.41
2018-03-19T19:12:26.031Z,98886.23
2018-03-19T19:14:54.550Z,98871.79
2018-03-19T19:17:23.082Z,98877.16
2018-03-19T19:19:51.538Z,98859.65
2018-03-19T19:22:20.077Z,98873.89
2018-03-19T19:24:48.570Z,98878.52
2018-03-19T19:27:17.026Z,98875.36
2018-03-19T19:29:45.514Z,98879.03
2018-03-19T19:32:13.984Z,98871.13
2018-03-19T19:34:42.489Z,98871.48
2018-03-19T19:37:10.986Z,98862.13
2018-03-19T19:39:39.478Z,98866.37
2018-03-19T19:42:07.970Z,98839.45
2018-03-19T19:44:36.518Z,98853.44
2018-03-19T19:47:05.101Z,98862.89
2018-03-19T19:49:33.676Z,98855.19
2018-03-19T19:52:02.164Z,98848.54
2018-03-19T19:54:30.605Z,98822.15
2018-03-19T19:56:59.093Z,98843.31
2018-03-19T19:59:27.549Z,98839.93
2018-03-19T20:01:56.051Z,98844.71
2018-03-19T20:04:24.498Z,98832.48
2018-03-19T20:06:53.025Z,98831.41
2018-03-19T20:09:21.530Z,98830.90
2018-03-19T20:11:49.974Z,98825.97
2018-03-19T20:14:18.431Z,98837.00
2018-03-19T20:16:46.909Z,98834.36
2018-03-19T20:19:15.378Z,98824.97
2018-03-19T20:21:43.922Z,98816.05
2018-03-19T20:24:12.377Z,98819.34
2018-03-19T20:26:40.858Z,98811.04
2018-03-19T20:29:09.346Z,98805.78
2018-03-19T20:31:37.834Z,98792.91
2018-03-19T20:34:06.345Z,98802.25
2018-03-19T20:36:34.798Z,98785.05
2018-03-19T20:39:03.338Z,98784.91
2018-03-19T20:41:31.782Z,98778.75
2018-03-19T20:44:00.234Z,98772.18
2018-03-19T20:46:28.730Z,98771.70
2018-03-19T20:48:57.208Z,98774.53
2018-03-19T20:51:25.698Z,98770.01
2018-03-19T20:53:54.158Z,98766.80
2018-03-19T20:56:22.645Z,98780.63
2018-03-19T20:58:51.104Z,98782.97
2018-03-19T21:01:19.582Z,98781.22
2018-03-19T21:03:48.042Z,98777.92
2018-03-19T21:06:16.534Z,98778.56
2018-03-19T21:08:44.990Z,98772.20
2018-03-19T21:11:13.512Z,98741.38
2018-03-19T21:13:41.969Z,98759.95
2018-03-19T21:16:10.427Z,98762.70
2018-03-19T21:18:38.922Z,98755.13
2018-03-19T21:21:07.378Z,98757.45
2018-03-19T21:23:35.878Z,98750.54
2018-03-19T21:26:04.374Z,98748.05
2018-03-19T21:28:32.849Z,98740.98
2018-03-19T21:31:01.358Z,98739.02
2018-03-19T21:33:29.818Z,98747.05
2018-03-19T21:35:58.314Z,98735.21
2018-03-19T21:38:26.757Z,98737.14
2018-03-19T21:40:55.235Z,98740.55
2018-03-19T21:43:23.694Z,98742.00
2018-03-19T21:45:52.560Z,98729.26
2018-03-19T21:48:21.073Z,98731.63
2018-03-19T21:50:49.518Z,98727.48
2018-03-19T21:53:18.013Z,98731.41
2018-03-19T21:55:46.458Z,98700.95
2018-03-19T21:58:14.975Z,98717.76
2018-03-19T22:00:43.434Z,98707.89
2018-03-19T22:03:11.882Z,98715.66
2018-03-19T22:05:40.361Z,98721.37
2018-03-19T22:08:08.799Z,98719.50
2018-03-19T22:10:37.275Z,98715.69
2018-03-19T22:13:05.746Z,98712.09
2018-03-19T22:15:34.246Z,98714.59
2018-03-19T22:18:02.722Z,98714.73
2018-03-19T22:20:31.249Z,98715.88
2018-03-19T22:22:59.690Z,98713.08
2018-03-19T22:25:28.130Z,98708.54
2018-03-19T22:27:56.638Z,98707.81
2018-03-19T22:30:25.074Z,98716.81
2018-03-19T22:32:53.563Z,98703.92
2018-03-19T22:35:22.012Z,98696.80
2018-03-19T22:37:50.498Z,98690.33
2018-03-19T22:40:18.937Z,98681.74
2018-03-19T22:42:47.422Z,98680.64
2018-03-19T22:45:15.885Z,98683.33
2018-03-19T22:47:44.408Z,98683.20
2018-03-19T22:50:12.888Z,98682.92
2018-03-19T22:52:41.401Z,98681.17
2018-03-19T22:55:09.862Z,98674.73
2018-03-19T22:57:38.307Z,98671.62
2018-03-19T23:00:06.819Z,98672.80
2018-03-19T23:02:35.320Z,98666.94
2018-03-19T23:08:01.665Z,98659.59
2018-03-19T23:10:30.193Z,98660.63
2018-03-19T23:12:58.654Z,98647.28
2018-03-19T23:15:27.102Z,98634.86
2018-03-19T23:17:55.610Z,98633.11
2018-03-19T23:20:24.050Z,98630.47
2018-03-19T23:22:52.538Z,98615.17
2018-03-19T23:25:20.982Z,98617.34
2018-03-19T23:27:49.493Z,98612.67
2018-03-19T23:30:17.958Z,98580.92
2018-03-19T23:32:46.428Z,98604.92
2018-03-19T23:35:14.926Z,98608.83
2018-03-19T23:37:43.386Z,98601.05
2018-03-19T23:40:11.830Z,98594.69
2018-03-19T23:42:40.310Z,98591.12
2018-03-19T23:45:08.772Z,98604.44
2018-03-19T23:47:37.274Z,98596.80
2018-03-19T23:50:05.726Z,98585.63
2018-03-19T23:52:34.234Z,98584.30
2018-03-19T23:55:02.733Z,98593.40
2018-03-19T23:57:31.170Z,98595.37
2018-03-19T23:59:59.666Z,98577.84
